Time;durP1;ratioP1;P1;durP2;ratioP2;P2;SDS_P1;SDS_P2;PMS_P1;PMS_P2;Temp;Humidity;BMP_temperature;BMP_pressure;BME280_temperature;BME280_humidity;BME280_pressure;Samples;Min_cycle;Max_cycle;Signal;HPM_P1;HPM_P2
2022/01/30 00:01:31;;;;;;;10.50;5.15;;;;;;;-2.71;59.67;94316.69;5063489;28;20071;-71
2022/01/30 00:03:56;;;;;;;17.80;7.28;;;;;;;-2.67;58.88;94310.03;5063427;28;20016;-71
2022/01/30 00:06:23;;;;;;;17.63;7.50;;;;;;;-2.67;59.29;94302.19;5063275;28;20338;-71
2022/01/30 00:08:48;;;;;;;12.32;6.90;;;;;;;-2.63;58.87;94311.22;5063179;28;20025;-71
2022/01/30 00:11:19;;;;;;;21.52;8.02;;;;;;;-2.62;59.12;94301.56;5062912;28;20075;-71
2022/01/30 00:13:45;;;;;;;22.88;8.63;;;;;;;-2.59;58.53;94308.16;5062941;28;20249;-70
2022/01/30 00:16:11;;;;;;;17.45;6.78;;;;;;;-2.72;57.02;94307.28;5063025;28;20016;-71
2022/01/30 00:18:57;;;;;;;10.25;5.07;;;;;;;-3.00;57.51;94314.84;5063040;28;20021;-71
2022/01/30 00:23:58;;;;;;;13.35;5.50;;;;;;;-3.26;59.80;94285.41;5062750;28;20028;-71
2022/01/30 00:26:30;;;;;;;12.50;5.40;;;;;;;-3.23;60.06;94282.38;5062829;28;20044;-70
2022/01/30 00:28:56;;;;;;;23.85;9.32;;;;;;;-3.21;60.08;94269.94;5062934;28;20223;-71
2022/01/30 00:31:23;;;;;;;21.40;9.48;;;;;;;-3.19;60.06;94267.91;5062925;28;20025;-71
2022/01/30 00:33:49;;;;;;;20.38;8.88;;;;;;;-3.16;60.02;94262.25;5062594;28;20035;-70
2022/01/30 00:36:14;;;;;;;25.17;9.77;;;;;;;-3.09;59.80;94262.19;5062557;28;20207;-71
2022/01/30 00:38:41;;;;;;;23.60;8.63;;;;;;;-3.10;59.40;94255.38;5062688;28;20023;-71
2022/01/30 00:41:07;;;;;;;22.85;9.48;;;;;;;-3.12;59.77;94268.63;5062740;28;20021;-70
2022/01/30 00:43:33;;;;;;;27.98;10.23;;;;;;;-3.13;59.68;94272.25;5062604;28;20043;-71
2022/01/30 00:45:58;;;;;;;26.30;10.30;;;;;;;-3.14;59.42;94264.63;5062540;28;20331;-71
2022/01/30 00:48:24;;;;;;;39.83;11.35;;;;;;;-3.16;59.15;94272.66;5062450;28;20280;-71
2022/01/30 00:50:49;;;;;;;27.17;9.38;;;;;;;-3.25;59.90;94268.78;5062366;28;20016;-70
2022/01/30 00:53:15;;;;;;;18.73;7.75;;;;;;;-3.30;59.60;94276.44;5062244;28;20021;-71
2022/01/30 00:55:40;;;;;;;16.92;7.72;;;;;;;-3.31;60.05;94272.25;5062393;28;20032;-71
2022/01/30 00:58:06;;;;;;;17.40;7.10;;;;;;;-3.34;59.89;94262.25;5062139;28;20053;-71
2022/01/30 01:00:32;;;;;;;24.05;8.15;;;;;;;-3.34;59.93;94257.03;5062479;28;20048;-71
2022/01/30 01:02:58;;;;;;;25.75;8.07;;;;;;;-3.38;60.25;94237.63;5062396;28;20124;-71
2022/01/30 01:05:24;;;;;;;25.15;8.73;;;;;;;-3.41;60.30;94232.84;5062162;28;20060;-71
2022/01/30 01:07:52;;;;;;;29.55;11.05;;;;;;;-3.40;60.41;94224.00;5062325;28;20323;-71
2022/01/30 01:10:41;;;;;;;39.58;14.30;;;;;;;-3.40;60.32;94211.75;5062296;28;20032;-71
2022/01/30 01:23:38;;;;;;;28.67;10.18;;;;;;;-3.33;60.56;94214.31;5062251;28;20025;-71
2022/01/30 01:26:04;;;;;;;23.65;10.00;;;;;;;-3.30;60.40;94214.66;5062100;28;20025;-71
2022/01/30 01:28:29;;;;;;;27.65;11.48;;;;;;;-3.28;60.30;94206.63;5061790;28;20108;-71
2022/01/30 01:30:55;;;;;;;18.65;7.95;;;;;;;-3.30;59.74;94206.84;5061793;28;20028;-71
2022/01/30 01:33:23;;;;;;;25.90;9.43;;;;;;;-3.41;59.88;94201.59;5063143;28;20029;-71
2022/01/30 01:35:49;;;;;;;22.13;9.43;;;;;;;-3.50;60.19;94194.06;5065935;28;20059;-71
2022/01/30 01:38:15;;;;;;;20.30;9.13;;;;;;;-3.64;60.64;94190.00;5065793;28;20029;-71
2022/01/30 01:40:51;;;;;;;22.13;9.43;;;;;;;-3.67;60.69;94182.59;5065882;28;20100;-70
2022/01/30 01:43:23;;;;;;;24.83;9.05;;;;;;;-3.72;61.02;94172.06;5065559;28;20021;-71
2022/01/30 01:45:51;;;;;;;18.70;7.82;;;;;;;-3.71;60.85;94166.59;5065957;28;20051;-71
2022/01/30 01:48:17;;;;;;;22.23;8.05;;;;;;;-3.72;60.89;94169.44;5065908;28;20219;-70
2022/01/30 01:50:50;;;;;;;28.27;10.52;;;;;;;-3.65;60.78;94170.94;5065694;28;20059;-70
2022/01/30 01:53:19;;;;;;;29.70;11.57;;;;;;;-3.68;60.64;94153.16;5065502;28;20035;-71
2022/01/30 01:55:45;;;;;;;25.30;9.82;;;;;;;-3.70;60.62;94165.59;5065821;28;20025;-71
2022/01/30 01:58:11;;;;;;;21.10;10.30;;;;;;;-3.70;60.63;94167.41;5065518;28;20027;-71
2022/01/30 02:00:37;;;;;;;25.42;11.00;;;;;;;-3.71;60.77;94158.78;5065659;28;20339;-71
2022/01/30 02:03:04;;;;;;;29.48;10.50;;;;;;;-3.70;60.65;94149.19;5065694;28;20025;-70
2022/01/30 02:05:32;;;;;;;28.40;10.05;;;;;;;-3.73;60.76;94147.78;5065538;28;20035;-70
2022/01/30 02:10:50;;;;;;;46.08;15.85;;;;;;;-3.70;60.67;94133.56;5065394;28;20028;-71
2022/01/30 02:13:50;;;;;;;53.70;18.42;;;;;;;-3.69;60.72;94140.34;5064850;28;20112;-70
2022/01/30 02:24:44;;;;;;;26.33;10.85;;;;;;;-3.75;60.08;94157.63;5065012;28;20032;-70
2022/01/30 02:27:15;;;;;;;28.10;9.90;;;;;;;-3.81;60.30;94144.69;5065040;28;20025;-71
2022/01/30 02:29:41;;;;;;;25.27;9.13;;;;;;;-3.77;60.15;94151.03;5064945;28;20031;-70
2022/01/30 02:32:06;;;;;;;26.77;9.68;;;;;;;-3.87;60.48;94152.38;5065004;28;20017;-70
2022/01/30 02:34:34;;;;;;;18.73;7.55;;;;;;;-3.84;60.91;94136.28;5064983;28;20012;-71
2022/01/30 02:37:00;;;;;;;17.45;8.13;;;;;;;-3.86;61.24;94117.47;5064980;28;20013;-71
2022/01/30 02:39:26;;;;;;;18.55;7.47;;;;;;;-3.88;61.03;94109.09;5064748;28;20036;-71
2022/01/30 02:41:52;;;;;;;20.55;6.88;;;;;;;-3.87;60.98;94110.69;5064793;28;20021;-71
2022/01/30 02:44:26;;;;;;;21.33;8.13;;;;;;;-3.88;61.39;94101.28;5064166;28;20309;-70
2022/01/30 02:46:55;;;;;;;17.08;7.97;;;;;;;-3.86;61.42;94091.44;5064766;28;20047;-70
2022/01/30 02:51:52;;;;;;;20.35;8.45;;;;;;;-3.84;60.84;94083.41;5064377;28;20025;-70
2022/01/30 02:54:18;;;;;;;25.60;9.40;;;;;;;-3.83;60.96;94084.97;5064570;28;20096;-70
2022/01/30 02:56:44;;;;;;;20.83;8.07;;;;;;;-3.79;60.72;94080.94;5064444;28;20095;-70
2022/01/30 02:59:10;;;;;;;24.35;8.05;;;;;;;-3.81;60.32;94085.56;5064456;28;20033;-70
2022/01/30 03:01:36;;;;;;;21.88;8.30;;;;;;;-3.83;60.64;94091.00;5064483;28;20024;-70
2022/01/30 03:04:02;;;;;;;25.38;8.95;;;;;;;-3.86;60.34;94095.84;5064296;28;20028;-70
2022/01/30 03:06:27;;;;;;;23.55;9.55;;;;;;;-3.89;60.81;94085.84;5064186;28;20024;-70
2022/01/30 03:08:53;;;;;;;18.30;7.80;;;;;;;-3.94;60.27;94081.31;5064366;28;20035;-70
2022/01/30 03:11:19;;;;;;;21.50;8.30;;;;;;;-3.95;60.17;94087.50;5064070;28;20060;-70
2022/01/30 03:13:45;;;;;;;21.05;9.20;;;;;;;-4.00;60.18;94079.56;5064197;28;20374;-70
2022/01/30 03:16:10;;;;;;;26.15;10.57;;;;;;;-4.00;60.27;94082.19;5064137;28;20028;-70
2022/01/30 03:18:36;;;;;;;27.30;10.38;;;;;;;-3.99;60.58;94081.16;5064002;28;20425;-70
2022/01/30 03:21:03;;;;;;;25.63;9.90;;;;;;;-4.01;60.83;94077.19;5063990;28;20032;-70
2022/01/30 03:23:29;;;;;;;35.95;12.32;;;;;;;-4.03;60.99;94086.03;5064013;28;20017;-70
2022/01/30 03:25:59;;;;;;;27.30;11.05;;;;;;;-4.03;61.21;94096.44;5063903;28;20020;-70
2022/01/30 03:28:25;;;;;;;29.70;10.90;;;;;;;-4.06;61.27;94094.25;5063713;28;20020;-70
2022/01/30 03:30:55;;;;;;;23.48;9.77;;;;;;;-4.04;61.34;94091.44;5063824;28;20025;-70
2022/01/30 03:33:21;;;;;;;22.52;10.45;;;;;;;-4.03;60.89;94093.81;5063636;28;20025;-70
2022/01/30 03:35:46;;;;;;;21.33;10.60;;;;;;;-4.09;60.92;94096.47;5063781;28;20368;-70
2022/01/30 03:38:14;;;;;;;21.33;9.25;;;;;;;-4.13;61.04;94103.94;5063664;28;20055;-70
2022/01/30 03:40:39;;;;;;;23.63;9.27;;;;;;;-4.15;61.32;94092.94;5064051;28;20319;-70
2022/01/30 03:43:05;;;;;;;20.88;9.10;;;;;;;-4.13;61.49;94095.31;5063564;28;20032;-70
2022/01/30 03:45:30;;;;;;;30.10;11.32;;;;;;;-4.11;61.65;94101.09;5063400;28;20035;-70
2022/01/30 03:47:56;;;;;;;27.58;9.60;;;;;;;-4.06;61.37;94101.28;5063359;28;20088;-70
2022/01/30 03:50:22;;;;;;;20.10;8.88;;;;;;;-4.11;61.72;94088.91;5063299;28;20059;-70
2022/01/30 03:52:48;;;;;;;24.58;10.57;;;;;;;-4.09;61.43;94096.47;5063331;28;20041;-70
2022/01/30 03:55:14;;;;;;;29.83;11.27;;;;;;;-4.13;61.56;94092.72;5062971;28;20021;-70
2022/01/30 03:57:39;;;;;;;30.85;12.52;;;;;;;-4.11;61.70;94088.09;5063063;28;20091;-70
2022/01/30 04:00:06;;;;;;;30.83;11.48;;;;;;;-4.09;61.55;94088.66;5063315;28;20021;-70
2022/01/30 04:02:32;;;;;;;24.73;9.63;;;;;;;-4.18;61.20;94071.75;5063095;28;20013;-70
2022/01/30 04:04:57;;;;;;;21.70;9.82;;;;;;;-4.18;61.41;94072.53;5063174;28;20257;-70
2022/01/30 04:07:23;;;;;;;21.42;8.95;;;;;;;-4.20;61.48;94065.97;5063136;28;20024;-70
2022/01/30 04:09:49;;;;;;;23.33;9.18;;;;;;;-4.26;61.51;94068.41;5062999;28;20104;-70
2022/01/30 04:12:15;;;;;;;18.88;8.18;;;;;;;-4.26;61.37;94063.22;5063072;28;20041;-71
2022/01/30 04:14:41;;;;;;;26.83;8.50;;;;;;;-4.21;61.54;94056.56;5063056;28;20044;-70
2022/01/30 04:17:09;;;;;;;24.30;9.85;;;;;;;-4.26;61.54;94057.22;5062956;28;20021;-70
2022/01/30 04:19:35;;;;;;;23.88;9.70;;;;;;;-4.31;61.70;94055.28;5062906;28;20319;-70
2022/01/30 04:22:01;;;;;;;31.02;10.18;;;;;;;-4.31;61.99;94049.28;5062835;28;20350;-70
2022/01/30 04:24:28;;;;;;;35.08;10.90;;;;;;;-4.28;61.67;94041.81;5061488;28;20033;-69
2022/01/30 04:26:54;;;;;;;26.52;9.43;;;;;;;-4.26;61.60;94037.19;5062755;28;20046;-69
2022/01/30 04:29:19;;;;;;;25.90;10.25;;;;;;;-4.20;61.89;94016.53;5062582;28;20338;-70
2022/01/30 04:31:48;;;;;;;27.88;11.02;;;;;;;-4.22;61.70;94008.91;5062489;28;20055;-69
2022/01/30 04:34:14;;;;;;;27.15;10.88;;;;;;;-4.25;61.58;94004.94;5062494;28;20200;-69
2022/01/30 04:36:54;;;;;;;22.65;11.02;;;;;;;-4.22;61.71;93990.69;5062722;28;20043;-69
2022/01/30 04:40:07;;;;;;;29.10;12.38;;;;;;;-4.22;61.62;93982.88;5062628;28;20044;-69
2022/01/30 04:53:40;;;;;;;38.65;11.25;;;;;;;-5.04;63.01;94003.91;5062255;28;20052;-71
2022/01/30 05:01:15;;;;;;;31.27;8.95;;;;;;;-5.68;66.88;94044.69;5062363;28;20342;-70
2022/01/30 05:06:17;;;;;;;17.63;6.78;;;;;;;-5.83;68.29;94047.59;5062508;28;20107;-70
2022/01/30 05:08:43;;;;;;;15.35;6.88;;;;;;;-5.80;68.20;94048.97;5062272;28;20039;-70
2022/01/30 05:11:09;;;;;;;20.38;6.43;;;;;;;-5.66;68.52;94034.91;5062030;28;20044;-70
2022/01/30 05:13:40;;;;;;;20.80;7.88;;;;;;;-5.51;68.07;94001.66;5062186;28;20104;-70
2022/01/30 05:16:05;;;;;;;18.30;7.07;;;;;;;-5.33;68.10;93967.16;5062232;28;20032;-70
2022/01/30 05:18:31;;;;;;;26.13;8.25;;;;;;;-5.16;67.66;93964.81;5062086;28;20037;-70
2022/01/30 05:20:57;;;;;;;27.27;9.25;;;;;;;-4.95;66.97;93949.84;5062039;28;20024;-70
2022/01/30 05:23:23;;;;;;;25.73;8.35;;;;;;;-4.79;66.47;93931.09;5062103;28;20013;-70
2022/01/30 05:25:51;;;;;;;25.35;8.20;;;;;;;-4.62;66.31;93920.88;5061858;28;20206;-70
2022/01/30 05:28:19;;;;;;;23.15;8.57;;;;;;;-4.44;65.67;93923.50;5061926;28;20043;-70
2022/01/30 05:30:47;;;;;;;23.85;10.32;;;;;;;-4.28;64.92;93918.69;5062161;28;20044;-70
2022/01/30 05:33:13;;;;;;;30.52;9.65;;;;;;;-4.22;63.92;93920.44;5061967;28;20029;-70
2022/01/30 05:35:38;;;;;;;25.30;8.70;;;;;;;-4.11;64.16;93924.09;5061874;28;20028;-70
2022/01/30 05:38:05;;;;;;;23.05;8.68;;;;;;;-3.99;63.60;93944.97;5062034;28;20296;-70
2022/01/30 05:40:32;;;;;;;23.48;8.07;;;;;;;-3.94;63.28;93940.69;5061980;28;20028;-70
2022/01/30 05:42:58;;;;;;;29.73;9.23;;;;;;;-3.84;62.77;93955.78;5061874;28;20063;-70
2022/01/30 05:47:57;;;;;;;17.33;7.97;;;;;;;-3.89;62.56;93990.31;5061726;28;20059;-70
2022/01/30 05:50:23;;;;;;;20.73;7.10;;;;;;;-3.92;63.07;94014.19;5061858;28;20203;-70
2022/01/30 05:52:48;;;;;;;22.13;7.43;;;;;;;-3.97;62.81;94010.63;5061673;28;20041;-70
2022/01/30 05:55:14;;;;;;;24.75;8.20;;;;;;;-4.07;63.12;94000.72;5061864;28;20090;-71
2022/01/30 05:57:40;;;;;;;19.23;7.32;;;;;;;-4.09;63.58;93987.13;5061797;28;20051;-70
2022/01/30 06:00:07;;;;;;;15.57;7.00;;;;;;;-4.04;63.98;93979.47;5061654;28;20086;-70
2022/01/30 06:02:33;;;;;;;17.85;7.68;;;;;;;-3.97;64.37;93982.78;5061565;28;20070;-70
2022/01/30 06:04:58;;;;;;;21.83;8.45;;;;;;;-3.83;64.73;93965.19;5061740;28;20045;-70
2022/01/30 06:07:29;;;;;;;18.60;7.18;;;;;;;-3.72;64.23;93961.03;5061679;28;20045;-70
2022/01/30 06:09:55;;;;;;;25.38;9.85;;;;;;;-3.56;64.22;93954.38;5061853;28;20021;-70
2022/01/30 06:12:20;;;;;;;19.20;8.75;;;;;;;-3.43;63.79;93944.56;5061492;28;20045;-70
2022/01/30 06:14:47;;;;;;;29.70;9.27;;;;;;;-3.29;63.58;93929.53;5061685;28;20134;-70
2022/01/30 06:17:13;;;;;;;18.88;9.02;;;;;;;-3.18;63.65;93935.75;5061767;28;20247;-70
2022/01/30 06:19:38;;;;;;;23.92;8.20;;;;;;;-3.03;62.94;93928.28;5063011;28;20052;-70
2022/01/30 06:22:04;;;;;;;23.85;10.27;;;;;;;-2.93;62.83;93900.84;5065202;28;20021;-71
2022/01/30 06:24:29;;;;;;;21.35;9.32;;;;;;;-2.82;62.42;93877.34;5065191;28;20037;-71
2022/01/30 06:26:55;;;;;;;22.38;10.68;;;;;;;-2.71;61.96;93888.78;5064912;28;20095;-70
2022/01/30 06:29:21;;;;;;;20.88;9.07;;;;;;;-2.74;61.05;93894.47;5065114;28;20084;-70
2022/01/30 06:31:46;;;;;;;26.23;10.27;;;;;;;-2.64;61.18;93899.91;5064817;28;20051;-70
2022/01/30 06:34:12;;;;;;;22.58;10.52;;;;;;;-2.71;60.87;93904.44;5065195;28;20021;-70
2022/01/30 06:36:37;;;;;;;21.98;9.50;;;;;;;-2.68;60.58;93903.22;5065114;28;20017;-70
2022/01/30 06:39:03;;;;;;;23.13;9.45;;;;;;;-2.60;61.49;93907.28;5065110;28;20092;-70
2022/01/30 06:41:28;;;;;;;20.67;7.72;;;;;;;-2.53;61.16;93894.88;5064949;28;20028;-70
2022/01/30 06:43:54;;;;;;;19.23;8.02;;;;;;;-2.42;60.28;93928.00;5064733;28;20027;-70
2022/01/30 06:46:19;;;;;;;20.27;8.52;;;;;;;-2.37;60.53;93912.44;5064952;28;20075;-70
2022/01/30 06:48:45;;;;;;;19.88;8.98;;;;;;;-2.29;60.02;93932.97;5065003;28;20031;-70
2022/01/30 06:51:10;;;;;;;21.08;8.18;;;;;;;-2.21;59.17;93955.31;5064659;28;20036;-70
2022/01/30 06:53:36;;;;;;;22.45;8.40;;;;;;;-2.18;58.62;93969.72;5064405;28;20036;-70
2022/01/30 06:56:02;;;;;;;25.95;8.50;;;;;;;-2.16;58.32;93958.00;5064796;28;20060;-70
2022/01/30 06:58:27;;;;;;;21.77;8.93;;;;;;;-2.13;58.31;93951.56;5064618;28;20204;-70
2022/01/30 07:00:52;;;;;;;21.88;8.25;;;;;;;-2.09;58.42;93934.41;5064733;28;20017;-70
2022/01/30 07:03:18;;;;;;;24.23;9.25;;;;;;;-2.06;59.18;93898.13;5064521;28;20051;-70
2022/01/30 07:05:43;;;;;;;19.02;7.88;;;;;;;-1.98;59.00;93920.47;5064452;28;20029;-70
2022/01/30 07:08:09;;;;;;;24.20;9.60;;;;;;;-1.88;58.53;93896.38;5064473;28;20100;-70
2022/01/30 07:10:37;;;;;;;23.55;10.57;;;;;;;-1.77;57.75;93903.38;5064417;28;20196;-70
2022/01/30 07:13:02;;;;;;;21.20;9.07;;;;;;;-1.65;58.02;93916.34;5064172;28;20033;-70
2022/01/30 07:15:28;;;;;;;22.55;8.65;;;;;;;-1.55;57.38;93923.59;5064398;28;20366;-71
2022/01/30 07:17:53;;;;;;;23.73;8.43;;;;;;;-1.51;57.18;93912.41;5064353;28;20043;-71
2022/01/30 07:20:19;;;;;;;19.05;8.02;;;;;;;-1.41;57.02;93914.41;5063043;28;20258;-70
2022/01/30 07:22:44;;;;;;;23.17;9.07;;;;;;;-1.33;56.48;93902.78;5064270;28;20017;-71
2022/01/30 07:25:10;;;;;;;21.02;9.45;;;;;;;-1.27;56.24;93928.75;5064199;28;20028;-70
2022/01/30 07:27:36;;;;;;;37.50;8.48;;;;;;;-1.16;55.53;93927.13;5064150;28;20319;-71
2022/01/30 07:30:04;;;;;;;24.17;9.30;;;;;;;-1.07;55.45;93922.25;5064011;28;20032;-71
2022/01/30 07:32:30;;;;;;;34.50;9.20;;;;;;;-0.98;54.95;93930.50;5062738;28;20261;-71
2022/01/30 07:34:55;;;;;;;25.63;9.63;;;;;;;-0.89;54.73;93927.25;5063972;28;20031;-71
2022/01/30 07:37:21;;;;;;;25.13;10.65;;;;;;;-0.85;54.88;93920.50;5063766;28;20333;-71
2022/01/30 07:39:47;;;;;;;25.88;10.18;;;;;;;-0.74;55.13;93931.09;5063921;28;20031;-71
2022/01/30 07:42:12;;;;;;;29.42;10.75;;;;;;;-0.65;54.72;93924.44;5064016;28;20036;-71
2022/01/30 07:44:38;;;;;;;25.63;9.18;;;;;;;-0.56;54.50;93937.91;5063762;28;20266;-71
2022/01/30 07:47:04;;;;;;;26.08;8.77;;;;;;;-0.47;54.69;93944.28;5063694;28;20059;-71
2022/01/30 07:49:30;;;;;;;22.52;8.15;;;;;;;-0.42;54.44;93939.13;5063884;28;20025;-71
2022/01/30 07:51:55;;;;;;;21.27;8.82;;;;;;;-0.34;54.61;93927.47;5063372;28;20020;-71
2022/01/30 07:54:31;;;;;;;22.05;8.80;;;;;;;-0.28;53.93;93935.13;5063841;28;20021;-71
2022/01/30 07:56:57;;;;;;;21.20;9.48;;;;;;;-0.24;53.85;93941.47;5062367;28;20043;-71
2022/01/30 07:59:23;;;;;;;22.83;9.30;;;;;;;-0.15;53.89;93927.94;5063501;28;20311;-71
2022/01/30 08:01:48;;;;;;;20.40;8.52;;;;;;;-0.12;53.68;93915.16;5063325;28;20020;-71
2022/01/30 08:04:14;;;;;;;20.50;8.35;;;;;;;-0.09;53.41;93892.91;5063367;28;20037;-71
2022/01/30 08:06:39;;;;;;;21.00;9.07;;;;;;;-0.08;52.97;93876.94;5063274;28;20088;-71
2022/01/30 08:09:05;;;;;;;19.30;9.05;;;;;;;-0.08;52.97;93891.84;5063293;28;20041;-71
2022/01/30 08:11:30;;;;;;;24.83;9.93;;;;;;;-0.02;52.87;93875.13;5063120;28;20041;-71
2022/01/30 08:13:56;;;;;;;20.70;8.88;;;;;;;0.02;53.06;93860.53;5063109;28;20128;-71
2022/01/30 08:16:23;;;;;;;21.25;9.48;;;;;;;0.04;52.54;93853.22;5063164;28;20339;-71
2022/01/30 08:18:49;;;;;;;23.58;9.13;;;;;;;0.13;52.69;93864.03;5063015;28;20040;-71
2022/01/30 08:21:14;;;;;;;31.30;10.65;;;;;;;0.18;52.42;93858.84;5063362;28;20028;-71
2022/01/30 08:23:40;;;;;;;40.70;10.40;;;;;;;0.19;53.17;93870.91;5063076;28;20036;-71
2022/01/30 08:26:05;;;;;;;27.17;10.57;;;;;;;0.31;52.84;93881.25;5063065;28;20032;-71
2022/01/30 08:28:31;;;;;;;30.55;12.65;;;;;;;0.32;52.90;93896.72;5062977;28;20020;-69
2022/01/30 08:30:56;;;;;;;26.25;8.60;;;;;;;0.39;52.50;93897.31;5062737;28;20016;-70
2022/01/30 08:33:22;;;;;;;24.98;9.20;;;;;;;0.46;51.84;93898.94;5062683;28;20345;-69
2022/01/30 08:35:49;;;;;;;23.40;10.15;;;;;;;0.50;51.37;93890.31;5062816;28;20028;-71
2022/01/30 08:38:17;;;;;;;29.77;9.18;;;;;;;0.50;50.79;93892.94;5062826;28;20103;-70
2022/01/30 08:40:44;;;;;;;23.67;9.02;;;;;;;0.54;51.32;93878.28;5062474;28;20333;-70
2022/01/30 08:43:10;;;;;;;26.00;10.40;;;;;;;0.52;51.03;93882.22;5062112;28;20092;-70
2022/01/30 08:45:36;;;;;;;24.17;9.82;;;;;;;0.54;51.43;93869.66;5062528;28;20021;-70
2022/01/30 08:48:01;;;;;;;24.08;9.95;;;;;;;0.56;51.38;93872.81;5062540;28;20024;-70
2022/01/30 08:50:27;;;;;;;21.70;9.57;;;;;;;0.65;50.85;93886.25;5062481;28;20033;-70
2022/01/30 08:52:53;;;;;;;31.73;10.20;;;;;;;0.68;50.86;93889.16;5062186;28;20047;-70
2022/01/30 08:55:19;;;;;;;28.20;9.80;;;;;;;0.72;50.71;93895.50;5062614;28;20422;-70
2022/01/30 08:57:45;;;;;;;24.08;9.10;;;;;;;0.82;49.78;93894.78;5062211;28;20095;-70
2022/01/30 09:00:13;;;;;;;27.67;9.65;;;;;;;0.86;50.57;93895.88;5062304;28;20069;-70
2022/01/30 09:02:39;;;;;;;25.75;10.00;;;;;;;0.90;50.62;93886.44;5062117;28;20059;-70
2022/01/30 09:05:09;;;;;;;25.33;10.63;;;;;;;1.03;50.12;93894.94;5062193;28;20029;-70
2022/01/30 09:07:35;;;;;;;23.08;10.35;;;;;;;1.15;49.86;93898.94;5062041;28;20059;-70
2022/01/30 09:10:02;;;;;;;25.42;9.90;;;;;;;1.32;49.82;93898.81;5062379;28;20025;-70
2022/01/30 09:12:28;;;;;;;29.13;9.73;;;;;;;1.45;49.32;93881.00;5062086;28;20051;-70
2022/01/30 09:14:54;;;;;;;18.40;9.73;;;;;;;1.63;49.27;93893.72;5062267;28;20096;-70
2022/01/30 09:17:26;;;;;;;24.83;9.77;;;;;;;1.81;48.44;93910.84;5062135;28;20293;-71
2022/01/30 09:19:52;;;;;;;24.70;9.88;;;;;;;1.97;48.36;93886.22;5062498;28;20312;-70
2022/01/30 09:22:18;;;;;;;31.50;10.25;;;;;;;2.13;47.70;93897.53;5062255;28;20021;-70
2022/01/30 09:24:45;;;;;;;23.88;9.88;;;;;;;2.23;47.17;93898.63;5062145;28;20021;-70
2022/01/30 09:27:10;;;;;;;28.00;11.65;;;;;;;2.17;47.42;93901.25;5062108;28;20057;-70
2022/01/30 09:29:40;;;;;;;25.98;9.98;;;;;;;2.16;47.06;93899.69;5062095;28;20032;-71
2022/01/30 09:32:06;;;;;;;22.08;10.15;;;;;;;2.19;47.18;93886.00;5062144;28;20385;-70
2022/01/30 09:34:33;;;;;;;25.95;10.70;;;;;;;2.19;47.39;93866.81;5062254;28;20291;-70
2022/01/30 09:36:59;;;;;;;26.05;10.50;;;;;;;2.26;47.26;93871.81;5061912;28;20021;-70
2022/01/30 09:39:24;;;;;;;31.75;10.93;;;;;;;2.26;47.31;93842.88;5061908;28;20067;-70
2022/01/30 09:41:52;;;;;;;34.05;10.13;;;;;;;2.30;47.73;93836.03;5062166;28;20025;-70
2022/01/30 09:44:20;;;;;;;24.10;9.75;;;;;;;2.33;47.43;93817.13;5062289;28;20262;-70
2022/01/30 09:46:45;;;;;;;27.30;10.07;;;;;;;2.38;47.01;93811.84;5061885;28;20100;-70
2022/01/30 09:49:12;;;;;;;26.45;11.65;;;;;;;2.40;47.46;93796.59;5061863;28;20041;-70
2022/01/30 09:51:38;;;;;;;26.42;10.38;;;;;;;2.44;47.37;93787.13;5061728;28;20040;-70
2022/01/30 09:54:05;;;;;;;29.55;10.32;;;;;;;2.39;47.51;93776.63;5062552;28;20237;-70
2022/01/30 09:56:30;;;;;;;32.25;11.35;;;;;;;2.38;47.19;93778.47;5065715;28;20092;-70
2022/01/30 09:58:56;;;;;;;38.15;12.63;;;;;;;2.42;47.09;93781.34;5065760;28;20029;-70
2022/01/30 10:01:22;;;;;;;24.73;10.05;;;;;;;2.41;46.92;93777.13;5065598;28;20319;-70
2022/01/30 10:03:48;;;;;;;22.75;9.50;;;;;;;2.48;46.58;93767.13;5065916;28;20056;-70
2022/01/30 10:06:20;;;;;;;26.85;9.93;;;;;;;2.48;46.38;93772.38;5065592;28;20048;-70
2022/01/30 10:08:48;;;;;;;27.25;9.18;;;;;;;2.55;46.61;93772.13;5065638;28;20134;-72
2022/01/30 10:11:37;;;;;;;28.52;8.43;;;;;;;2.65;45.81;93766.09;5065278;28;20096;-71
2022/01/30 10:14:11;;;;;;;22.35;8.50;;;;;;;2.74;45.83;93759.22;5065640;28;20031;-70
2022/01/30 10:16:42;;;;;;;22.25;9.35;;;;;;;2.76;45.84;93755.25;5065478;28;20017;-70
2022/01/30 10:19:19;;;;;;;21.33;8.57;;;;;;;2.90;46.09;93765.25;5065315;28;20025;-71
2022/01/30 10:22:05;;;;;;;35.63;12.20;;;;;;;2.93;45.13;93760.22;5065352;28;20342;-71
2022/01/30 10:24:37;;;;;;;30.42;8.10;;;;;;;3.04;44.88;93773.38;5065262;28;20093;-70
2022/01/30 10:27:18;;;;;;;20.80;7.93;;;;;;;3.13;44.48;93787.56;5065215;28;20029;-70
2022/01/30 10:29:44;;;;;;;17.40;8.20;;;;;;;3.21;43.95;93797.53;5065258;28;20219;-71
2022/01/30 10:32:10;;;;;;;28.40;9.13;;;;;;;3.27;44.35;93785.94;5064877;28;20275;-70
2022/01/30 10:34:39;;;;;;;22.75;9.20;;;;;;;3.31;44.31;93776.44;5065109;28;20021;-70
2022/01/30 10:37:19;;;;;;;22.63;8.57;;;;;;;3.44;43.95;93755.81;5064954;28;20053;-71
2022/01/30 10:39:53;;;;;;;21.83;8.80;;;;;;;3.54;44.32;93750.50;5065133;28;20218;-71
2022/01/30 10:42:43;;;;;;;19.85;8.30;;;;;;;3.69;44.19;93752.28;5065081;28;20192;-70
2022/01/30 10:45:27;;;;;;;22.08;10.57;;;;;;;3.78;43.92;93740.88;5064663;28;20025;-71
2022/01/30 10:48:16;;;;;;;24.27;8.77;;;;;;;3.91;42.65;93751.88;5064947;28;20104;-71
2022/01/30 10:50:44;;;;;;;21.50;8.18;;;;;;;3.96;42.43;93720.22;5064621;28;20029;-71
2022/01/30 10:53:24;;;;;;;21.08;8.95;;;;;;;4.04;42.51;93695.13;5064297;28;20032;-71
2022/01/30 10:55:50;;;;;;;19.77;9.55;;;;;;;4.14;43.12;93695.81;5064691;28;20084;-71
2022/01/30 10:58:18;;;;;;;22.77;8.73;;;;;;;4.27;43.29;93697.00;5064650;28;20036;-71
2022/01/30 11:00:45;;;;;;;21.23;8.32;;;;;;;4.40;42.73;93691.09;5064434;28;20326;-70
2022/01/30 11:03:37;;;;;;;23.00;9.18;;;;;;;4.57;42.23;93688.03;5064622;28;20048;-71
2022/01/30 11:06:06;;;;;;;22.25;8.80;;;;;;;4.59;42.17;93693.81;5063940;28;20108;-71
2022/01/30 11:08:33;;;;;;;23.98;8.20;;;;;;;4.66;40.98;93684.78;5064382;28;20433;-71
2022/01/30 11:11:02;;;;;;;16.95;7.93;;;;;;;4.62;41.45;93695.91;5064406;28;20199;-70
2022/01/30 11:13:32;;;;;;;30.67;8.40;;;;;;;4.55;41.28;93684.88;5064291;28;20319;-71
2022/01/30 11:16:56;;;;;;;21.83;8.02;;;;;;;4.75;41.28;93667.28;5064151;28;20029;-71
2022/01/30 11:18:51;;;;;;;21.33;9.23;;;;;;;4.93;41.61;93652.56;5064102;28;20033;-71
2022/01/30 11:21:22;;;;;;;29.63;8.88;;;;;;;5.08;41.15;93644.44;5064059;28;20028;-70
2022/01/30 11:23:50;;;;;;;23.92;9.02;;;;;;;5.14;41.33;93645.16;5064056;28;20021;-70
2022/01/30 11:26:17;;;;;;;31.92;11.27;;;;;;;5.17;40.83;93658.59;5063906;28;20020;-70
2022/01/30 11:28:43;;;;;;;23.95;8.73;;;;;;;5.22;40.80;93644.53;5064340;28;20032;-70
2022/01/30 11:31:10;;;;;;;21.42;8.43;;;;;;;5.33;40.78;93672.41;5063997;28;20279;-70
2022/01/30 11:33:36;;;;;;;26.73;8.32;;;;;;;5.62;40.37;93674.13;5063738;28;20056;-70
2022/01/30 11:36:02;;;;;;;23.98;8.55;;;;;;;5.88;39.79;93671.88;5063766;28;20032;-70
2022/01/30 11:38:28;;;;;;;34.40;9.27;;;;;;;6.15;38.85;93676.53;5063462;28;20035;-70
2022/01/30 11:41:10;;;;;;;24.00;8.73;;;;;;;6.41;37.99;93660.22;5063704;28;20025;-71
2022/01/30 11:43:36;;;;;;;20.95;9.07;;;;;;;6.55;37.76;93647.78;5063573;28;20024;-71
2022/01/30 11:46:13;;;;;;;19.65;8.68;;;;;;;6.66;37.72;93648.41;5063686;28;20234;-71
2022/01/30 11:48:39;;;;;;;21.63;8.10;;;;;;;6.80;37.69;93643.13;5063613;28;20031;-71
2022/01/30 11:51:04;;;;;;;20.73;9.13;;;;;;;6.90;37.84;93631.53;5063477;28;20021;-71
2022/01/30 11:53:30;;;;;;;25.05;8.98;;;;;;;6.98;37.61;93639.59;5063428;28;20035;-71
2022/01/30 11:55:57;;;;;;;28.92;9.25;;;;;;;7.04;38.01;93629.66;5063767;28;20028;-71
2022/01/30 11:59:05;;;;;;;26.08;8.82;;;;;;;7.09;37.95;93618.97;5063524;28;20025;-71
2022/01/30 12:01:35;;;;;;;21.25;8.32;;;;;;;7.14;37.63;93610.88;5051522;28;20032;-71
2022/01/30 12:04:08;;;;;;;33.80;9.32;;;;;;;7.11;37.56;93605.41;5063375;28;20052;-71
2022/01/30 12:06:35;;;;;;;24.70;9.43;;;;;;;7.16;37.82;93613.25;5063243;28;20047;-71
2022/01/30 12:09:04;;;;;;;22.42;8.77;;;;;;;7.25;37.51;93619.44;5063147;28;20314;-72
2022/01/30 12:11:36;;;;;;;30.75;11.95;;;;;;;7.35;37.07;93615.78;5062874;28;20098;-71
2022/01/30 12:14:02;;;;;;;21.27;8.95;;;;;;;7.34;36.17;93608.91;5063040;28;20330;-72
2022/01/30 12:17:04;;;;;;;20.63;8.60;;;;;;;7.30;36.27;93611.34;5062546;28;20025;-71
2022/01/30 12:19:47;;;;;;;18.30;8.63;;;;;;;7.27;37.25;93609.31;5062667;28;20033;-71